Time;durP1;ratioP1;P1;durP2;ratioP2;P2;SDS_P1;SDS_P2;PMS_P1;PMS_P2;Temp;Humidity;BMP_temperature;BMP_pressure;BME280_temperature;BME280_humidity;BME280_pressure;Samples;Min_cycle;Max_cycle;Signal;HPM_P1;HPM_P2
2023/07/24 00:00:47;;;;;;;12.45;7.47;;;26.10;99.90;;;;;;7398001;19;20249;-71
2023/07/24 00:03:13;;;;;;;15.27;7.35;;;26.10;99.90;;;;;;7398488;19;19935;-70
2023/07/24 00:05:39;;;;;;;14.23;6.57;;;26.10;99.90;;;;;;7399194;19;20254;-71
2023/07/24 00:08:06;;;;;;;13.90;7.70;;;26.10;99.90;;;;;;7376036;19;20346;-70
2023/07/24 00:10:32;;;;;;;16.60;7.55;;;26.00;99.90;;;;;;7397661;19;20299;-69
2023/07/24 00:12:59;;;;;;;14.55;8.52;;;26.00;99.90;;;;;;7400174;19;19927;-71
2023/07/24 00:15:25;;;;;;;15.18;7.85;;;25.90;99.90;;;;;;7394841;19;19918;-70
2023/07/24 00:17:51;;;;;;;14.95;8.75;;;26.00;99.90;;;;;;7399008;19;19918;-70
2023/07/24 00:20:17;;;;;;;17.20;7.60;;;25.90;99.90;;;;;;7397282;19;20240;-70
2023/07/24 00:22:42;;;;;;;16.73;8.27;;;26.00;99.90;;;;;;7397599;19;19920;-71
2023/07/24 00:25:09;;;;;;;13.38;7.88;;;26.00;99.90;;;;;;7397102;19;19923;-70
2023/07/24 00:27:34;;;;;;;15.10;7.90;;;25.90;99.90;;;;;;7398305;19;19930;-70
2023/07/24 00:30:01;;;;;;;16.73;7.75;;;26.00;99.90;;;;;;7395304;19;19933;-70
2023/07/24 00:32:28;;;;;;;13.85;7.03;;;26.00;99.90;;;;;;7396253;19;20015;-71
2023/07/24 00:34:54;;;;;;;15.40;6.22;;;25.90;99.90;;;;;;7397912;19;19919;-71
2023/07/24 00:37:19;;;;;;;13.18;6.78;;;25.90;99.90;;;;;;7398591;19;19928;-70
2023/07/24 00:39:45;;;;;;;12.90;6.35;;;25.80;99.90;;;;;;7395386;19;19925;-70
2023/07/24 00:42:11;;;;;;;13.05;5.75;;;25.70;99.90;;;;;;7395791;19;20398;-70
2023/07/24 00:44:38;;;;;;;13.48;6.45;;;25.70;99.90;;;;;;7398311;19;20257;-70
2023/07/24 00:47:05;;;;;;;13.68;5.65;;;25.60;99.90;;;;;;7396512;19;19911;-70
2023/07/24 00:49:31;;;;;;;11.65;6.90;;;25.60;99.90;;;;;;7396681;19;20331;-69
2023/07/24 00:51:58;;;;;;;13.65;6.28;;;25.50;99.90;;;;;;7399556;19;19926;-71
2023/07/24 00:54:24;;;;;;;14.88;6.93;;;25.50;99.90;;;;;;7361116;19;19911;-71
2023/07/24 00:56:50;;;;;;;;;;;25.40;99.90;;;;;;7401819;19;19914;-69
2023/07/24 00:59:16;;;;;;;12.55;5.70;;;25.40;99.90;;;;;;7396029;19;19937;-70
2023/07/24 01:01:43;;;;;;;12.27;6.43;;;25.50;99.90;;;;;;7398709;19;19910;-71
2023/07/24 01:04:08;;;;;;;14.18;6.13;;;25.40;99.90;;;;;;7396263;19;19926;-70
2023/07/24 01:06:34;;;;;;;12.35;6.22;;;25.50;99.90;;;;;;7399689;19;20331;-70
2023/07/24 01:09:00;;;;;;;11.88;6.05;;;25.40;99.90;;;;;;7397496;19;19914;-70
2023/07/24 01:11:37;;;;;;;12.55;6.93;;;25.50;99.90;;;;;;7397102;19;19951;-70
2023/07/24 01:14:13;;;;;;;11.30;5.97;;;25.40;99.90;;;;;;7395610;19;19925;-70
2023/07/24 01:16:42;;;;;;;17.30;6.53;;;25.30;99.90;;;;;;7394378;19;19935;-70
2023/07/24 01:19:20;;;;;;;16.30;6.07;;;25.30;99.90;;;;;;7395459;19;20363;-70
2023/07/24 01:22:09;;;;;;;12.10;5.97;;;25.30;99.90;;;;;;7394152;19;19939;-71
2023/07/24 01:24:55;;;;;;;13.25;6.53;;;25.30;99.90;;;;;;7394214;19;19942;-71
2023/07/24 01:27:24;;;;;;;13.15;7.25;;;25.30;99.90;;;;;;7397239;19;19914;-70
2023/07/24 01:29:50;;;;;;;12.25;6.97;;;25.30;99.90;;;;;;7402869;19;19922;-70
2023/07/24 01:32:16;;;;;;;15.82;6.95;;;25.30;99.90;;;;;;7401129;19;19967;-70
2023/07/24 01:34:42;;;;;;;13.88;7.20;;;25.20;99.90;;;;;;7402350;19;19957;-71
2023/07/24 01:37:11;;;;;;;12.05;6.72;;;25.20;99.90;;;;;;7402394;19;20263;-71
2023/07/24 01:39:37;;;;;;;13.82;7.40;;;25.20;99.90;;;;;;7402289;19;19937;-71
2023/07/24 01:42:03;;;;;;;;;;;25.20;99.90;;;;;;7404357;19;20477;-71
2023/07/24 01:44:29;;;;;;;15.00;8.02;;;25.20;99.90;;;;;;7402956;19;19925;-71
2023/07/24 01:46:54;;;;;;;17.05;8.68;;;25.20;99.90;;;;;;7405193;19;19919;-71
2023/07/24 01:49:20;;;;;;;15.20;7.18;;;25.10;99.90;;;;;;7402329;19;19926;-71
2023/07/24 01:51:46;;;;;;;19.13;7.25;;;25.10;99.90;;;;;;7401286;19;19922;-72
2023/07/24 01:54:12;;;;;;;21.13;8.70;;;25.10;99.90;;;;;;7403083;19;20351;-71
2023/07/24 01:56:39;;;;;;;15.75;8.15;;;25.10;99.90;;;;;;7401471;19;20280;-71
2023/07/24 01:59:05;;;;;;;13.82;8.00;;;25.00;99.90;;;;;;7402530;19;20244;-71
2023/07/24 02:01:31;;;;;;;15.93;7.60;;;25.10;99.90;;;;;;7403612;19;19950;-71
2023/07/24 02:03:57;;;;;;;16.75;9.50;;;25.10;99.90;;;;;;7404651;19;19925;-70
2023/07/24 02:06:23;;;;;;;15.27;7.53;;;25.00;99.90;;;;;;7401619;19;19938;-71
2023/07/24 02:08:51;;;;;;;14.05;7.35;;;25.10;99.90;;;;;;7402787;19;20475;-71
2023/07/24 02:11:17;;;;;;;17.27;8.13;;;25.00;99.90;;;;;;7400132;19;20030;-71
2023/07/24 02:13:44;;;;;;;15.82;8.13;;;25.10;99.90;;;;;;7403371;19;20342;-70
2023/07/24 02:16:11;;;;;;;14.18;7.45;;;25.10;99.90;;;;;;7401451;19;19918;-71
2023/07/24 02:18:38;;;;;;;14.15;6.57;;;25.10;99.90;;;;;;7403183;19;19922;-71
2023/07/24 02:21:04;;;;;;;13.00;6.60;;;25.10;99.90;;;;;;7397929;19;20237;-70
2023/07/24 02:23:30;;;;;;;14.23;6.18;;;25.20;99.90;;;;;;7401868;19;19943;-71
2023/07/24 02:25:55;;;;;;;10.93;6.05;;;25.30;99.90;;;;;;7402066;19;19922;-71
2023/07/24 02:28:21;;;;;;;12.35;5.22;;;25.30;99.90;;;;;;7401954;19;19927;-72
2023/07/24 02:30:48;;;;;;;13.48;6.07;;;25.30;99.90;;;;;;7401657;19;19953;-72
2023/07/24 02:33:14;;;;;;;12.85;5.68;;;25.30;99.90;;;;;;7400293;19;19922;-72
2023/07/24 02:35:41;;;;;;;11.77;5.32;;;25.30;99.90;;;;;;7401436;19;19943;-72
2023/07/24 02:38:07;;;;;;;15.23;5.97;;;25.30;98.90;;;;;;7399101;19;19925;-72
2023/07/24 02:40:33;;;;;;;16.83;6.03;;;25.40;99.60;;;;;;7403175;19;19994;-72
2023/07/24 02:43:00;;;;;;;12.80;5.63;;;25.60;99.40;;;;;;7403099;19;19925;-72
2023/07/24 02:45:26;;;;;;;11.68;5.38;;;25.60;99.90;;;;;;7400697;19;19919;-72
2023/07/24 02:47:51;;;;;;;15.38;6.13;;;25.60;99.90;;;;;;7402368;19;19935;-71
2023/07/24 02:50:17;;;;;;;16.50;5.75;;;25.60;98.90;;;;;;7401317;19;19959;-71
2023/07/24 02:52:43;;;;;;;16.55;6.68;;;25.60;98.60;;;;;;7403145;19;19918;-73
2023/07/24 02:55:09;;;;;;;12.30;6.10;;;25.60;98.20;;;;;;7400472;19;19919;-72
2023/07/24 02:57:35;;;;;;;14.65;5.78;;;25.70;96.80;;;;;;7402436;19;19938;-72
2023/07/24 03:00:00;;;;;;;11.30;5.70;;;25.70;95.80;;;;;;7401325;19;19922;-72
2023/07/24 03:02:26;;;;;;;15.00;6.07;;;25.70;95.50;;;;;;7398127;19;20007;-71
2023/07/24 03:04:52;;;;;;;13.43;5.28;;;25.70;95.60;;;;;;7402073;19;19926;-72
2023/07/24 03:07:18;;;;;;;13.13;5.25;;;25.70;95.60;;;;;;7400170;19;20563;-72
2023/07/24 03:09:43;;;;;;;11.27;5.55;;;25.70;95.80;;;;;;7402172;19;20950;-72
2023/07/24 03:12:11;;;;;;;11.65;5.63;;;25.60;95.80;;;;;;7397987;19;19914;-72
2023/07/24 03:14:36;;;;;;;12.00;5.35;;;25.70;94.90;;;;;;7400316;19;19921;-72
2023/07/24 03:17:02;;;;;;;11.77;5.35;;;25.70;94.50;;;;;;7398370;19;19911;-72
2023/07/24 03:19:28;;;;;;;11.52;5.43;;;25.60;93.90;;;;;;7400793;19;20247;-72
2023/07/24 03:21:55;;;;;;;13.48;5.35;;;25.60;93.80;;;;;;7400017;19;20386;-73
2023/07/24 03:24:21;;;;;;;12.57;5.30;;;25.60;93.60;;;;;;7398701;19;19934;-72
2023/07/24 03:26:47;;;;;;;12.50;4.88;;;25.70;93.10;;;;;;7399076;19;19918;-72
2023/07/24 03:29:14;;;;;;;13.30;5.70;;;25.70;93.00;;;;;;7400519;19;20019;-72
2023/07/24 03:31:40;;;;;;;12.65;5.30;;;25.60;93.00;;;;;;7398608;19;20013;-72
2023/07/24 03:34:05;;;;;;;15.50;5.45;;;25.60;92.80;;;;;;7400182;19;20593;-72
2023/07/24 03:36:31;;;;;;;12.35;5.70;;;25.70;92.90;;;;;;7397645;19;19930;-72
2023/07/24 03:38:57;;;;;;;15.68;6.00;;;25.70;92.90;;;;;;7401668;19;19991;-72
2023/07/24 03:41:23;;;;;;;13.13;5.25;;;25.70;92.80;;;;;;7398452;19;19930;-71
2023/07/24 03:43:48;;;;;;;14.63;5.35;;;25.80;93.00;;;;;;7401788;19;19914;-71
2023/07/24 03:46:14;;;;;;;15.38;6.18;;;25.80;92.90;;;;;;7401198;19;19954;-71
2023/07/24 03:48:40;;;;;;;12.70;5.28;;;25.80;92.30;;;;;;7396733;19;19982;-72
2023/07/24 03:51:07;;;;;;;12.07;5.63;;;25.70;93.00;;;;;;7400564;19;19922;-71
2023/07/24 03:53:33;;;;;;;11.90;5.75;;;25.80;93.00;;;;;;7400361;19;19923;-72
2023/07/24 03:55:58;;;;;;;14.45;5.88;;;25.80;93.60;;;;;;7401647;19;19914;-72
2023/07/24 03:58:24;;;;;;;14.27;5.05;;;25.90;93.90;;;;;;7399931;19;19947;-71
2023/07/24 04:00:50;;;;;;;12.57;5.60;;;25.90;93.70;;;;;;7400361;19;19942;-72
2023/07/24 04:03:16;;;;;;;14.13;4.97;;;25.80;94.30;;;;;;7397532;19;19922;-70
2023/07/24 04:05:42;;;;;;;10.52;5.53;;;25.80;94.10;;;;;;7401401;19;19914;-71
2023/07/24 04:08:08;;;;;;;13.27;5.63;;;25.70;94.00;;;;;;7397994;19;19926;-71
2023/07/24 04:10:33;;;;;;;14.38;5.45;;;25.80;93.80;;;;;;7400748;19;19910;-72
2023/07/24 04:12:59;;;;;;;13.15;6.30;;;25.80;93.20;;;;;;7397761;19;20454;-72
2023/07/24 04:15:25;;;;;;;15.48;5.55;;;25.90;93.10;;;;;;7397678;19;19981;-71
2023/07/24 04:17:51;;;;;;;12.48;5.30;;;25.90;92.90;;;;;;7399697;19;19922;-71
2023/07/24 04:20:17;;;;;;;14.98;6.22;;;25.90;92.70;;;;;;7397701;19;20299;-70
2023/07/24 04:22:42;;;;;;;16.30;6.90;;;25.90;92.90;;;;;;7396153;19;19942;-72
2023/07/24 04:25:08;;;;;;;12.20;5.40;;;25.90;95.20;;;;;;7399569;19;19922;-72
2023/07/24 04:27:34;;;;;;;11.10;5.45;;;25.80;95.90;;;;;;7396301;19;19918;-71
2023/07/24 04:30:00;;;;;;;12.15;5.72;;;25.70;96.00;;;;;;7398402;19;19918;-71
2023/07/24 04:32:29;;;;;;;11.77;5.28;;;25.70;97.20;;;;;;7399435;19;19926;-71
2023/07/24 04:34:54;;;;;;;14.82;6.05;;;25.80;94.80;;;;;;7401808;19;19926;-71
2023/07/24 04:37:20;;;;;;;14.57;6.60;;;25.70;98.00;;;;;;7393654;19;19918;-71
2023/07/24 04:39:46;;;;;;;17.20;6.72;;;25.50;99.90;;;;;;7396532;19;19926;-71
2023/07/24 04:42:12;;;;;;;14.48;6.90;;;25.50;99.90;;;;;;7392557;19;19938;-70
2023/07/24 04:44:37;;;;;;;14.65;6.20;;;25.40;99.90;;;;;;7398658;19;19932;-71
2023/07/24 04:47:03;;;;;;;15.15;6.38;;;25.30;99.90;;;;;;7375293;19;19918;-71
2023/07/24 04:49:30;;;;;;;13.82;6.97;;;25.20;99.90;;;;;;7399516;19;19989;-70
2023/07/24 04:51:56;;;;;;;14.63;6.50;;;25.20;99.90;;;;;;7395397;19;19914;-70
2023/07/24 04:54:22;;;;;;;15.38;6.72;;;25.30;99.90;;;;;;7391306;19;19921;-71
2023/07/24 04:56:47;;;;;;;16.52;8.50;;;25.30;99.90;;;;;;7397315;19;19978;-70
2023/07/24 04:59:13;;;;;;;15.05;6.05;;;25.40;99.90;;;;;;7388747;19;19919;-71
2023/07/24 05:01:39;;;;;;;16.10;6.65;;;25.40;99.90;;;;;;7400791;19;19921;-71
2023/07/24 05:04:05;;;;;;;14.48;6.32;;;25.40;99.90;;;;;;7403132;19;19914;-71
2023/07/24 05:06:30;;;;;;;15.35;6.60;;;25.50;99.90;;;;;;7403262;19;19923;-72
2023/07/24 05:08:56;;;;;;;15.90;6.30;;;25.50;99.90;;;;;;7402472;19;19917;-72
2023/07/24 05:11:22;;;;;;;12.68;5.90;;;25.60;99.50;;;;;;7366909;19;19920;-71
2023/07/24 05:13:48;;;;;;;16.15;6.32;;;25.70;98.50;;;;;;7404934;19;19924;-71
2023/07/24 05:16:14;;;;;;;11.75;5.32;;;25.70;98.00;;;;;;7402210;19;19964;-72
2023/07/24 05:18:39;;;;;;;14.70;5.95;;;25.70;97.90;;;;;;7401955;19;20444;-72
2023/07/24 05:21:05;;;;;;;10.43;6.18;;;25.70;98.80;;;;;;7398079;19;20588;-71
2023/07/24 05:23:31;;;;;;;12.43;5.38;;;25.70;99.20;;;;;;7402072;19;19923;-72
2023/07/24 05:25:58;;;;;;;16.27;6.45;;;25.60;99.70;;;;;;7403505;19;19918;-71
2023/07/24 05:28:28;;;;;;;14.77;6.38;;;25.60;99.90;;;;;;7398154;19;19914;-71
2023/07/24 05:30:55;;;;;;;13.95;5.85;;;25.60;99.90;;;;;;7401200;19;19922;-72
2023/07/24 05:33:21;;;;;;;12.70;6.00;;;25.60;99.90;;;;;;7403337;19;20352;-72
2023/07/24 05:35:49;;;;;;;16.92;7.03;;;25.70;99.90;;;;;;7403212;19;20724;-72
2023/07/24 05:38:15;;;;;;;17.67;6.50;;;25.70;99.90;;;;;;7402322;19;19919;-71
2023/07/24 05:40:41;;;;;;;13.40;6.60;;;25.70;99.90;;;;;;7404252;19;19954;-72
2023/07/24 05:43:07;;;;;;;16.45;6.50;;;25.60;99.90;;;;;;7399629;19;20257;-72
2023/07/24 05:45:32;;;;;;;14.45;6.68;;;25.40;99.90;;;;;;7402046;19;19942;-72
2023/07/24 05:47:58;;;;;;;15.00;6.75;;;25.40;99.90;;;;;;7402129;19;19914;-72
2023/07/24 05:50:24;;;;;;;13.05;5.88;;;25.50;99.90;;;;;;7399963;19;19915;-71
2023/07/24 05:52:50;;;;;;;19.02;7.05;;;25.40;99.90;;;;;;7402378;19;19923;-72
2023/07/24 05:55:16;;;;;;;14.57;6.38;;;25.50;99.90;;;;;;7398644;19;19914;-71
2023/07/24 05:57:41;;;;;;;14.95;6.65;;;25.60;99.90;;;;;;7399987;19;19903;-72
2023/07/24 06:00:07;;;;;;;14.40;7.18;;;25.60;99.90;;;;;;7400014;19;19978;-72
2023/07/24 06:02:33;;;;;;;14.23;6.82;;;25.50;99.90;;;;;;7400689;19;19930;-71
2023/07/24 06:04:59;;;;;;;15.95;5.97;;;25.60;99.90;;;;;;7400601;19;19907;-71
2023/07/24 06:07:25;;;;;;;16.75;7.10;;;25.60;99.90;;;;;;7401233;19;20385;-72
2023/07/24 06:09:51;;;;;;;15.95;6.45;;;25.60;99.90;;;;;;7400828;19;20002;-73
2023/07/24 06:12:16;;;;;;;15.88;6.00;;;25.70;99.90;;;;;;7400311;19;19949;-72
2023/07/24 06:14:42;;;;;;;17.15;6.53;;;25.70;99.80;;;;;;7400008;19;19918;-72
2023/07/24 06:17:08;;;;;;;17.85;7.07;;;25.80;99.50;;;;;;7399392;19;20261;-71
2023/07/24 06:19:34;;;;;;;15.60;5.50;;;25.90;98.30;;;;;;7402364;19;19914;-70
2023/07/24 06:22:00;;;;;;;16.60;6.45;;;26.00;97.20;;;;;;7401133;19;19917;-71
2023/07/24 06:24:26;;;;;;;13.48;6.30;;;26.00;97.30;;;;;;7397424;19;19917;-71
2023/07/24 06:26:51;;;;;;;17.25;6.53;;;26.00;96.50;;;;;;7399995;19;19930;-71
2023/07/24 06:29:17;;;;;;;16.83;6.13;;;26.00;97.40;;;;;;7397570;19;20362;-72
2023/07/24 06:31:43;;;;;;;17.05;6.25;;;25.90;96.50;;;;;;7398702;19;19934;-71
2023/07/24 06:34:09;;;;;;;17.35;7.05;;;25.90;96.90;;;;;;7397395;19;19919;-73
2023/07/24 06:36:35;;;;;;;16.08;6.97;;;25.90;96.80;;;;;;7400003;19;20016;-72
2023/07/24 06:39:00;;;;;;;13.55;6.28;;;26.00;97.20;;;;;;7399727;19;19915;-72
2023/07/24 06:41:26;;;;;;;16.83;7.38;;;26.10;97.00;;;;;;7397351;19;20527;-72
2023/07/24 06:43:52;;;;;;;15.70;6.15;;;26.10;97.00;;;;;;7399913;19;19919;-71
2023/07/24 06:46:18;;;;;;;11.75;5.57;;;26.10;96.90;;;;;;7398282;19;20377;-72
2023/07/24 06:48:43;;;;;;;16.38;6.28;;;26.20;96.30;;;;;;7398835;19;19922;-71
2023/07/24 06:51:09;;;;;;;18.02;6.65;;;26.30;96.10;;;;;;7396804;19;19911;-72
2023/07/24 06:53:35;;;;;;;14.85;6.22;;;26.40;95.60;;;;;;7400668;19;19918;-72
2023/07/24 06:56:01;;;;;;;20.15;6.95;;;26.50;95.10;;;;;;7247054;19;3006987;-73
2023/07/24 06:58:26;;;;;;;14.25;6.05;;;26.60;94.90;;;;;;7401884;19;19982;-72
2023/07/24 07:00:52;;;;;;;17.55;7.60;;;26.70;94.50;;;;;;7400503;19;19949;-70
2023/07/24 07:03:18;;;;;;;13.68;7.00;;;26.70;94.20;;;;;;7398798;19;19929;-71
2023/07/24 07:05:44;;;;;;;14.02;6.68;;;26.70;94.10;;;;;;7401786;19;19979;-71
2023/07/24 07:08:09;;;;;;;17.35;5.78;;;26.70;93.30;;;;;;7399583;19;19926;-71
2023/07/24 07:10:35;;;;;;;17.95;7.18;;;26.60;93.20;;;;;;7400953;19;19911;-71
2023/07/24 07:13:01;;;;;;;13.95;5.82;;;26.70;93.00;;;;;;7402380;19;20339;-71
2023/07/24 07:15:27;;;;;;;18.42;7.13;;;26.70;93.10;;;;;;7401446;19;19915;-72
2023/07/24 07:17:52;;;;;;;14.40;5.53;;;26.70;92.60;;;;;;7393550;19;19942;-71
2023/07/24 07:20:19;;;;;;;14.60;5.85;;;26.60;92.60;;;;;;7401509;19;19957;-71
2023/07/24 07:22:44;;;;;;;;;;;26.70;92.70;;;;;;7402382;19;20343;-71
2023/07/24 07:25:11;;;;;;;18.52;6.55;;;26.70;92.20;;;;;;7398406;19;19938;-72
2023/07/24 07:27:36;;;;;;;12.82;5.53;;;26.60;92.50;;;;;;7401289;19;20368;-72
2023/07/24 07:30:03;;;;;;;12.38;5.93;;;26.70;92.20;;;;;;7401957;19;19922;-72
2023/07/24 07:32:29;;;;;;;10.75;5.18;;;26.70;92.00;;;;;;7395068;19;19930;-72
2023/07/24 07:34:55;;;;;;;14.90;5.90;;;26.80;91.60;;;;;;7386554;19;19914;-73
2023/07/24 07:37:21;;;;;;;17.30;6.03;;;27.00;90.90;;;;;;7395732;19;19926;-73
2023/07/24 07:39:47;;;;;;;14.75;5.80;;;27.00;90.70;;;;;;7391502;19;21188;-74
2023/07/24 07:42:12;;;;;;;14.70;6.03;;;27.20;90.20;;;;;;7396844;19;19930;-74
2023/07/24 07:44:38;;;;;;;12.75;6.10;;;27.30;90.00;;;;;;7390890;19;19978;-74
2023/07/24 07:47:04;;;;;;;15.90;5.78;;;27.40;89.20;;;;;;7391620;19;19918;-74
2023/07/24 07:49:30;;;;;;;13.02;5.38;;;27.60;87.40;;;;;;7396515;19;19928;-74
2023/07/24 07:51:56;;;;;;;13.18;5.90;;;27.70;86.80;;;;;;7395328;19;19926;-74
2023/07/24 07:54:21;;;;;;;17.50;5.88;;;27.70;87.50;;;;;;7391044;19;19919;-74
2023/07/24 07:56:47;;;;;;;15.27;5.78;;;27.80;87.00;;;;;;7404297;19;19918;-75
2023/07/24 07:59:13;;;;;;;15.25;6.15;;;28.00;86.00;;;;;;7395708;19;19947;-74
2023/07/24 08:01:39;;;;;;;12.52;5.38;;;28.20;84.90;;;;;;7398727;19;19910;-74
2023/07/24 08:04:05;;;;;;;14.18;5.63;;;28.60;84.30;;;;;;7394887;19;19923;-74
2023/07/24 08:06:31;;;;;;;15.10;6.18;;;28.90;82.80;;;;;;7394635;19;19989;-73
2023/07/24 08:08:57;;;;;;;17.27;6.38;;;29.40;81.00;;;;;;7399966;19;19915;-75
2023/07/24 08:11:23;;;;;;;11.88;5.40;;;29.70;79.50;;;;;;7399745;19;19930;-75
2023/07/24 08:13:49;;;;;;;14.00;7.72;;;29.50;79.60;;;;;;7392220;19;19939;-75
2023/07/24 08:16:19;;;;;;;16.50;7.10;;;29.40;80.00;;;;;;7384306;19;19911;-74
2023/07/24 08:18:48;;;;;;;20.05;6.53;;;29.40;80.60;;;;;;7387065;19;19925;-74
2023/07/24 08:21:15;;;;;;;14.30;7.35;;;29.20;81.50;;;;;;7353394;19;20330;-74
2023/07/24 08:23:41;;;;;;;16.20;6.25;;;29.20;80.80;;;;;;7387490;19;19914;-74
2023/07/24 08:26:07;;;;;;;13.35;5.90;;;29.20;80.60;;;;;;7391123;19;19923;-74
2023/07/24 08:28:36;;;;;;;15.57;5.68;;;29.20;80.90;;;;;;7386449;19;19922;-75
2023/07/24 08:31:02;;;;;;;13.50;7.07;;;29.30;80.10;;;;;;7389540;19;20256;-74
2023/07/24 08:33:29;;;;;;;13.68;6.20;;;29.70;79.50;;;;;;7389894;19;19915;-75
2023/07/24 08:36:04;;;;;;;14.45;6.63;;;29.90;78.40;;;;;;7393405;19;20268;-73
2023/07/24 08:38:31;;;;;;;14.57;6.85;;;29.90;78.60;;;;;;7393549;19;19911;-74
2023/07/24 08:41:15;;;;;;;15.25;6.68;;;30.10;78.50;;;;;;7399816;19;20014;-73
2023/07/24 08:43:41;;;;;;;;;;;30.60;77.00;;;;;;7364522;19;20256;-74
2023/07/24 08:46:08;;;;;;;18.85;6.80;;;31.00;75.50;;;;;;7391727;19;19911;-74
2023/07/24 08:48:39;;;;;;;13.88;6.57;;;31.10;74.60;;;;;;7395300;19;19929;-73
2023/07/24 08:51:06;;;;;;;16.98;7.70;;;30.50;76.10;;;;;;7393101;19;20314;-74
2023/07/24 08:53:37;;;;;;;16.95;8.85;;;31.00;74.40;;;;;;7395586;19;20609;-75
2023/07/24 08:56:04;;;;;;;16.00;7.95;;;32.20;71.90;;;;;;7388067;19;19922;-74
2023/07/24 08:58:31;;;;;;;18.00;6.65;;;33.00;70.10;;;;;;7395428;19;19923;-74
2023/07/24 09:00:57;;;;;;;17.23;6.88;;;34.00;67.80;;;;;;7389415;19;19910;-73
2023/07/24 09:03:23;;;;;;;14.98;6.78;;;34.70;64.00;;;;;;7366059;19;19935;-74
2023/07/24 09:05:49;;;;;;;17.80;6.78;;;34.20;63.20;;;;;;7383896;19;19918;-73
2023/07/24 09:08:15;;;;;;;;;;;33.80;64.40;;;;;;7385590;19;19952;-72
2023/07/24 09:10:41;;;;;;;17.55;7.35;;;34.10;63.90;;;;;;7387890;19;19923;-72
2023/07/24 09:13:07;;;;;;;17.17;7.25;;;33.80;64.10;;;;;;7365235;19;20334;-73
2023/07/24 09:15:40;;;;;;;17.35;8.45;;;33.40;65.10;;;;;;7391281;19;20257;-73
2023/07/24 09:18:06;;;;;;;17.92;8.07;;;33.90;64.90;;;;;;7371586;19;19937;-72
2023/07/24 09:20:43;;;;;;;15.65;7.65;;;34.30;63.20;;;;;;7388946;19;20293;-72
2023/07/24 09:23:10;;;;;;;17.17;7.32;;;34.80;62.60;;;;;;7383470;19;19915;-73
2023/07/24 09:25:38;;;;;;;15.93;8.10;;;34.40;62.10;;;;;;7389993;19;20493;-73
2023/07/24 09:28:15;;;;;;;18.27;7.63;;;34.00;62.80;;;;;;7385877;19;19918;-73
2023/07/24 09:30:43;;;;;;;15.05;8.25;;;34.20;62.90;;;;;;7350999;19;19922;-73
2023/07/24 09:33:11;;;;;;;13.52;7.75;;;34.50;62.60;;;;;;7383999;19;19927;-73
2023/07/24 09:35:37;;;;;;;12.40;6.80;;;34.40;62.00;;;;;;7379422;19;19914;-72
2023/07/24 09:38:10;;;;;;;17.17;6.97;;;35.50;61.10;;;;;;7385505;19;19929;-73
2023/07/24 09:40:40;;;;;;;15.68;7.57;;;36.60;59.00;;;;;;7390509;19;19918;-73
2023/07/24 09:43:18;;;;;;;18.02;7.38;;;35.70;58.00;;;;;;7365834;19;19918;-73
2023/07/24 09:45:45;;;;;;;21.52;7.93;;;33.50;62.80;;;;;;7388824;19;19922;-73
2023/07/24 09:48:14;;;;;;;13.52;7.07;;;32.30;66.90;;;;;;7387098;19;19933;-73
2023/07/24 09:50:41;;;;;;;19.17;8.38;;;33.20;66.50;;;;;;7389450;19;19922;-74
2023/07/24 09:53:19;;;;;;;17.38;8.02;;;33.40;65.90;;;;;;7396672;19;19918;-73
2023/07/24 09:56:03;;;;;;;18.65;7.28;;;34.70;63.80;;;;;;7379196;19;19911;-73
2023/07/24 09:58:31;;;;;;;19.15;7.97;;;34.90;62.40;;;;;;7395891;19;20339;-74
2023/07/24 10:00:58;;;;;;;18.55;7.50;;;33.30;64.80;;;;;;7391807;19;19934;-73
2023/07/24 10:03:25;;;;;;;15.68;7.20;;;33.40;65.90;;;;;;7387817;19;21299;-73
2023/07/24 10:05:52;;;;;;;16.95;7.13;;;33.30;65.30;;;;;;7389672;19;19934;-73
2023/07/24 10:08:19;;;;;;;16.90;7.40;;;32.90;66.10;;;;;;7391619;19;19915;-73
2023/07/24 10:10:45;;;;;;;17.00;7.40;;;32.90;66.40;;;;;;7395346;19;19922;-74
2023/07/24 10:13:14;;;;;;;17.45;7.63;;;32.60;67.30;;;;;;7386288;19;19906;-74
2023/07/24 10:15:45;;;;;;;15.18;7.22;;;32.30;67.90;;;;;;7384953;19;19932;-74
2023/07/24 10:18:11;;;;;;;16.90;8.52;;;32.30;69.60;;;;;;7391637;19;19956;-74
2023/07/24 10:20:41;;;;;;;21.88;8.52;;;33.40;68.40;;;;;;7391071;19;19915;-73
2023/07/24 10:23:09;;;;;;;14.52;7.15;;;34.80;64.50;;;;;;7384845;19;19931;-73
2023/07/24 10:25:43;;;;;;;16.42;7.95;;;34.40;63.70;;;;;;7394764;19;19926;-73
2023/07/24 10:28:11;;;;;;;20.92;8.25;;;33.40;66.90;;;;;;7398363;19;19922;-73
2023/07/24 10:30:41;;;;;;;19.27;8.27;;;34.30;65.70;;;;;;7398035;19;19914;-73
2023/07/24 10:33:13;;;;;;;18.60;8.07;;;34.80;64.70;;;;;;7393182;19;19939;-73
2023/07/24 10:35:53;;;;;;;15.70;7.68;;;35.20;62.70;;;;;;7399984;19;19921;-73
2023/07/24 10:38:19;;;;;;;17.33;9.85;;;35.50;62.20;;;;;;7392371;19;20290;-73
2023/07/24 10:40:48;;;;;;;21.15;8.27;;;35.70;62.30;;;;;;7395748;19;19922;-73
2023/07/24 10:43:18;;;;;;;17.52;10.20;;;35.20;63.20;;;;;;7358395;19;20394;-74
2023/07/24 10:45:52;;;;;;;16.63;7.75;;;35.70;63.00;;;;;;7396070;19;20584;-73
2023/07/24 10:48:19;;;;;;;14.57;7.38;;;36.00;62.60;;;;;;7399741;19;19915;-73
2023/07/24 10:50:46;;;;;;;15.75;6.55;;;34.80;62.40;;;;;;7381129;19;19925;-73
2023/07/24 10:53:17;;;;;;;14.07;7.00;;;34.00;64.30;;;;;;7390764;19;19918;-73
2023/07/24 10:55:44;;;;;;;15.77;8.18;;;34.40;64.90;;;;;;7397162;19;19918;-73
2023/07/24 10:58:11;;;;;;;15.20;7.38;;;34.70;64.10;;;;;;7390199;19;19977;-72
2023/07/24 11:00:38;;;;;;;13.50;7.03;;;34.10;65.20;;;;;;7387388;19;19974;-73
2023/07/24 11:03:04;;;;;;;12.57;6.90;;;34.60;64.40;;;;;;7397398;19;20362;-73
2023/07/24 11:05:30;;;;;;;13.10;6.85;;;33.70;66.10;;;;;;7393738;19;19919;-73
2023/07/24 11:07:56;;;;;;;15.77;6.50;;;33.70;66.10;;;;;;7388619;19;19988;-73
2023/07/24 11:10:23;;;;;;;15.63;6.90;;;33.60;66.60;;;;;;7400077;19;19923;-72
2023/07/24 11:12:51;;;;;;;15.32;7.38;;;32.80;68.80;;;;;;7395340;19;19911;-73
2023/07/24 11:15:26;;;;;;;13.48;7.13;;;32.60;70.50;;;;;;7390681;19;19918;-73
2023/07/24 11:17:52;;;;;;;15.23;7.22;;;33.30;70.30;;;;;;7390099;19;20332;-73
2023/07/24 11:20:18;;;;;;;14.07;8.05;;;33.00;70.60;;;;;;7382223;19;19925;-74
2023/07/24 11:22:44;;;;;;;16.35;6.75;;;33.20;70.90;;;;;;7395140;19;20650;-73
2023/07/24 11:25:11;;;;;;;14.20;7.75;;;33.50;71.30;;;;;;7388090;19;19918;-72
2023/07/24 11:27:44;;;;;;;16.33;9.40;;;33.30;71.30;;;;;;7397695;19;20246;-73
2023/07/24 11:30:12;;;;;;;15.43;7.20;;;33.20;72.60;;;;;;7389781;19;20320;-73
2023/07/24 11:32:42;;;;;;;15.77;7.38;;;33.40;73.20;;;;;;7397294;19;19926;-74
2023/07/24 11:35:09;;;;;;;17.67;8.27;;;33.90;71.80;;;;;;7392312;19;19927;-72
2023/07/24 11:37:36;;;;;;;13.50;8.77;;;34.20;71.50;;;;;;7385820;19;19966;-73
2023/07/24 11:40:12;;;;;;;17.35;8.45;;;33.90;71.40;;;;;;7389374;19;19919;-73
2023/07/24 11:42:39;;;;;;;15.75;8.43;;;33.40;73.10;;;;;;7395715;19;19921;-73
2023/07/24 11:45:07;;;;;;;15.35;7.30;;;32.90;73.80;;;;;;7393878;19;19922;-73
2023/07/24 11:47:42;;;;;;;16.10;8.00;;;32.80;74.00;;;;;;7386888;19;19931;-73
2023/07/24 11:50:08;;;;;;;17.80;8.65;;;32.20;75.30;;;;;;7389162;19;19994;-72
2023/07/24 11:52:48;;;;;;;13.88;8.35;;;31.90;77.60;;;;;;7386688;19;19913;-73
2023/07/24 11:55:17;;;;;;;16.50;8.07;;;31.50;80.30;;;;;;7391995;19;20414;-72
2023/07/24 11:57:43;;;;;;;18.05;8.40;;;31.40;81.00;;;;;;7396652;19;19931;-73
2023/07/24 12:00:27;;;;;;;;;;;31.90;80.40;;;;;;7399399;19;19918;-73
2023/07/24 12:02:59;;;;;;;15.70;7.90;;;32.10;79.70;;;;;;7389198;19;19921;-73
2023/07/24 12:05:26;;;;;;;17.48;8.13;;;32.20;78.80;;;;;;7390890;19;20648;-74
2023/07/24 12:07:54;;;;;;;14.82;7.38;;;31.70;80.10;;;;;;7401517;19;19918;-72
2023/07/24 12:10:27;;;;;;;17.08;7.88;;;31.50;80.70;;;;;;7397100;19;20371;-72
2023/07/24 12:12:55;;;;;;;19.73;7.72;;;30.60;85.30;;;;;;7402220;19;20343;-72
2023/07/24 12:15:21;;;;;;;16.98;8.77;;;30.70;85.50;;;;;;7399372;19;20255;-73
2023/07/24 12:17:46;;;;;;;;;;;30.70;85.80;;;;;;7403458;19;19911;-75
2023/07/24 12:20:12;;;;;;;11.23;6.88;;;30.90;85.40;;;;;;7400918;19;19915;-73
2023/07/24 12:22:38;;;;;;;;;;;30.80;84.60;;;;;;7400837;19;19934;-73
2023/07/24 12:25:06;;;;;;;13.52;7.47;;;30.30;86.90;;;;;;7397953;19;19926;-72
2023/07/24 12:27:32;;;;;;;13.18;6.80;;;30.10;88.80;;;;;;7399717;19;20589;-73
2023/07/24 12:29:59;;;;;;;17.17;7.78;;;29.90;90.30;;;;;;7400393;19;20433;-72
2023/07/24 12:32:25;;;;;;;14.38;7.00;;;29.80;90.50;;;;;;7399942;19;19910;-72
2023/07/24 12:34:52;;;;;;;15.95;7.20;;;30.40;90.00;;;;;;7401358;19;19968;-72
2023/07/24 12:37:18;;;;;;;20.90;8.02;;;30.50;89.10;;;;;;7399625;19;19919;-73